sensor_id;sensor_type;location;lat;lon;timestamp;P1;durP1;ratioP1;P2;durP2;ratioP2
18435;SDS011;9346;52.006;4.720;2022-10-24T00:01:36;2.57;;;1.87;;
18435;SDS011;9346;52.006;4.720;2022-10-24T00:04:03;5.23;;;2.20;;
18435;SDS011;9346;52.006;4.720;2022-10-24T00:06:31;6.80;;;2.57;;
18435;SDS011;9346;52.006;4.720;2022-10-24T00:09:01;7.17;;;2.50;;
18435;SDS011;9346;52.006;4.720;2022-10-24T00:11:28;5.27;;;2.63;;
18435;SDS011;9346;52.006;4.720;2022-10-24T00:13:56;3.07;;;2.07;;
18435;SDS011;9346;52.006;4.720;2022-10-24T00:16:25;2.73;;;1.90;;
18435;SDS011;9346;52.006;4.720;2022-10-24T00:18:53;4.00;;;2.00;;
18435;SDS011;9346;52.006;4.720;2022-10-24T00:21:22;5.93;;;2.57;;
18435;SDS011;9346;52.006;4.720;2022-10-24T00:23:49;4.20;;;2.30;;
18435;SDS011;9346;52.006;4.720;2022-10-24T00:26:20;4.47;;;1.93;;
18435;SDS011;9346;52.006;4.720;2022-10-24T00:28:47;6.33;;;2.33;;
18435;SDS011;9346;52.006;4.720;2022-10-24T00:31:15;7.47;;;2.60;;
18435;SDS011;9346;52.006;4.720;2022-10-24T00:33:44;6.60;;;2.43;;
18435;SDS011;9346;52.006;4.720;2022-10-24T00:36:11;3.33;;;1.80;;
18435;SDS011;9346;52.006;4.720;2022-10-24T00:38:40;5.90;;;2.50;;
18435;SDS011;9346;52.006;4.720;2022-10-24T00:41:07;5.80;;;2.13;;
18435;SDS011;9346;52.006;4.720;2022-10-24T00:43:37;4.47;;;1.70;;
18435;SDS011;9346;52.006;4.720;2022-10-24T00:46:04;2.97;;;1.87;;
18435;SDS011;9346;52.006;4.720;2022-10-24T00:48:33;5.60;;;1.70;;
18435;SDS011;9346;52.006;4.720;2022-10-24T00:51:04;5.23;;;1.73;;
18435;SDS011;9346;52.006;4.720;2022-10-24T00:53:34;6.00;;;1.87;;
18435;SDS011;9346;52.006;4.720;2022-10-24T00:56:08;5.23;;;1.70;;
18435;SDS011;9346;52.006;4.720;2022-10-24T00:58:40;3.07;;;1.70;;
18435;SDS011;9346;52.006;4.720;2022-10-24T01:01:09;2.60;;;1.23;;
18435;SDS011;9346;52.006;4.720;2022-10-24T01:03:37;3.93;;;1.80;;
18435;SDS011;9346;52.006;4.720;2022-10-24T01:06:18;3.53;;;1.70;;
18435;SDS011;9346;52.006;4.720;2022-10-24T01:08:58;2.00;;;1.33;;
18435;SDS011;9346;52.006;4.720;2022-10-24T01:11:38;2.80;;;1.73;;
18435;SDS011;9346;52.006;4.720;2022-10-24T01:14:21;3.50;;;1.30;;
18435;SDS011;9346;52.006;4.720;2022-10-24T01:16:59;3.17;;;1.50;;
18435;SDS011;9346;52.006;4.720;2022-10-24T01:19:41;2.50;;;1.67;;
18435;SDS011;9346;52.006;4.720;2022-10-24T01:22:36;2.73;;;1.10;;
18435;SDS011;9346;52.006;4.720;2022-10-24T01:25:16;4.90;;;1.80;;
18435;SDS011;9346;52.006;4.720;2022-10-24T01:27:55;1.73;;;1.33;;
18435;SDS011;9346;52.006;4.720;2022-10-24T01:30:29;2.03;;;1.10;;
18435;SDS011;9346;52.006;4.720;2022-10-24T01:33:02;3.53;;;1.17;;
18435;SDS011;9346;52.006;4.720;2022-10-24T01:35:33;2.53;;;1.00;;
18435;SDS011;9346;52.006;4.720;2022-10-24T01:38:09;7.13;;;1.73;;
18435;SDS011;9346;52.006;4.720;2022-10-24T01:40:43;1.83;;;1.07;;
18435;SDS011;9346;52.006;4.720;2022-10-24T01:43:17;2.90;;;0.87;;
18435;SDS011;9346;52.006;4.720;2022-10-24T01:45:50;3.73;;;1.10;;
18435;SDS011;9346;52.006;4.720;2022-10-24T01:48:21;3.43;;;1.43;;
18435;SDS011;9346;52.006;4.720;2022-10-24T01:50:51;2.27;;;1.13;;
18435;SDS011;9346;52.006;4.720;2022-10-24T01:53:20;3.60;;;1.43;;
18435;SDS011;9346;52.006;4.720;2022-10-24T01:55:50;6.40;;;1.43;;
18435;SDS011;9346;52.006;4.720;2022-10-24T01:58:19;2.50;;;1.00;;
18435;SDS011;9346;52.006;4.720;2022-10-24T02:00:46;1.60;;;1.20;;
18435;SDS011;9346;52.006;4.720;2022-10-24T02:03:19;2.13;;;1.00;;
18435;SDS011;9346;52.006;4.720;2022-10-24T02:05:50;2.23;;;1.10;;
18435;SDS011;9346;52.006;4.720;2022-10-24T02:08:23;1.30;;;0.83;;
18435;SDS011;9346;52.006;4.720;2022-10-24T02:10:56;2.70;;;0.87;;
18435;SDS011;9346;52.006;4.720;2022-10-24T02:13:30;1.70;;;1.07;;
18435;SDS011;9346;52.006;4.720;2022-10-24T02:16:01;2.90;;;1.63;;
18435;SDS011;9346;52.006;4.720;2022-10-24T02:18:30;2.93;;;0.93;;
18435;SDS011;9346;52.006;4.720;2022-10-24T02:21:01;3.87;;;1.33;;
18435;SDS011;9346;52.006;4.720;2022-10-24T02:23:40;1.70;;;1.20;;
18435;SDS011;9346;52.006;4.720;2022-10-24T02:26:12;1.63;;;1.07;;
18435;SDS011;9346;52.006;4.720;2022-10-24T02:28:45;3.37;;;1.13;;
18435;SDS011;9346;52.006;4.720;2022-10-24T02:31:18;2.97;;;1.10;;
18435;SDS011;9346;52.006;4.720;2022-10-24T02:33:48;1.13;;;0.83;;
18435;SDS011;9346;52.006;4.720;2022-10-24T02:36:26;2.47;;;1.07;;
18435;SDS011;9346;52.006;4.720;2022-10-24T02:38:55;2.23;;;1.17;;
18435;SDS011;9346;52.006;4.720;2022-10-24T02:41:27;4.40;;;0.90;;
18435;SDS011;9346;52.006;4.720;2022-10-24T02:43:58;2.43;;;1.10;;
18435;SDS011;9346;52.006;4.720;2022-10-24T02:46:29;2.63;;;1.00;;
18435;SDS011;9346;52.006;4.720;2022-10-24T02:48:59;1.20;;;0.70;;
18435;SDS011;9346;52.006;4.720;2022-10-24T02:51:28;4.10;;;1.10;;
18435;SDS011;9346;52.006;4.720;2022-10-24T02:53:58;2.43;;;1.20;;
18435;SDS011;9346;52.006;4.720;2022-10-24T02:56:27;1.70;;;0.80;;
18435;SDS011;9346;52.006;4.720;2022-10-24T02:58:54;5.97;;;1.33;;
18435;SDS011;9346;52.006;4.720;2022-10-24T03:01:21;2.40;;;1.00;;
18435;SDS011;9346;52.006;4.720;2022-10-24T03:03:50;5.20;;;1.20;;
18435;SDS011;9346;52.006;4.720;2022-10-24T03:06:18;1.50;;;0.73;;
18435;SDS011;9346;52.006;4.720;2022-10-24T03:08:45;3.30;;;1.20;;
18435;SDS011;9346;52.006;4.720;2022-10-24T03:11:12;1.27;;;0.70;;
18435;SDS011;9346;52.006;4.720;2022-10-24T03:13:39;2.97;;;1.03;;
18435;SDS011;9346;52.006;4.720;2022-10-24T03:16:06;1.00;;;0.80;;
18435;SDS011;9346;52.006;4.720;2022-10-24T03:18:33;1.60;;;0.70;;
18435;SDS011;9346;52.006;4.720;2022-10-24T03:21:02;1.23;;;0.87;;
18435;SDS011;9346;52.006;4.720;2022-10-24T03:23:29;1.83;;;1.00;;
18435;SDS011;9346;52.006;4.720;2022-10-24T03:25:57;5.60;;;1.03;;
18435;SDS011;9346;52.006;4.720;2022-10-24T03:28:27;2.97;;;0.70;;
18435;SDS011;9346;52.006;4.720;2022-10-24T03:30:54;2.27;;;0.90;;
18435;SDS011;9346;52.006;4.720;2022-10-24T03:33:22;1.73;;;0.40;;
18435;SDS011;9346;52.006;4.720;2022-10-24T03:35:50;3.23;;;0.80;;
18435;SDS011;9346;52.006;4.720;2022-10-24T03:38:19;1.93;;;0.70;;
18435;SDS011;9346;52.006;4.720;2022-10-24T03:40:47;1.67;;;0.60;;
18435;SDS011;9346;52.006;4.720;2022-10-24T03:43:15;1.50;;;0.70;;
18435;SDS011;9346;52.006;4.720;2022-10-24T03:45:42;2.17;;;1.03;;
18435;SDS011;9346;52.006;4.720;2022-10-24T03:48:09;1.83;;;0.77;;
18435;SDS011;9346;52.006;4.720;2022-10-24T03:50:37;3.07;;;1.23;;
18435;SDS011;9346;52.006;4.720;2022-10-24T03:53:04;5.03;;;0.97;;
18435;SDS011;9346;52.006;4.720;2022-10-24T03:55:32;1.43;;;0.80;;
18435;SDS011;9346;52.006;4.720;2022-10-24T03:58:00;1.80;;;0.63;;
18435;SDS011;9346;52.006;4.720;2022-10-24T04:00:27;1.87;;;0.90;;
18435;SDS011;9346;52.006;4.720;2022-10-24T04:02:54;2.57;;;0.90;;
18435;SDS011;9346;52.006;4.720;2022-10-24T04:05:21;1.03;;;0.47;;
18435;SDS011;9346;52.006;4.720;2022-10-24T04:07:48;0.93;;;0.40;;
18435;SDS011;9346;52.006;4.720;2022-10-24T04:10:15;4.77;;;0.70;;
18435;SDS011;9346;52.006;4.720;2022-10-24T04:12:44;4.80;;;1.10;;
18435;SDS011;9346;52.006;4.720;2022-10-24T04:15:11;1.23;;;0.50;;
18435;SDS011;9346;52.006;4.720;2022-10-24T04:17:39;1.67;;;0.60;;
18435;SDS011;9346;52.006;4.720;2022-10-24T04:20:06;1.60;;;1.00;;
18435;SDS011;9346;52.006;4.720;2022-10-24T04:22:34;1.40;;;0.60;;
18435;SDS011;9346;52.006;4.720;2022-10-24T04:25:01;1.53;;;0.50;;
18435;SDS011;9346;52.006;4.720;2022-10-24T04:27:29;1.70;;;0.70;;
18435;SDS011;9346;52.006;4.720;2022-10-24T04:29:58;0.60;;;0.40;;
18435;SDS011;9346;52.006;4.720;2022-10-24T04:32:25;8.77;;;1.47;;
18435;SDS011;9346;52.006;4.720;2022-10-24T04:34:53;1.57;;;0.63;;
18435;SDS011;9346;52.006;4.720;2022-10-24T04:37:20;3.00;;;0.83;;
18435;SDS011;9346;52.006;4.720;2022-10-24T04:39:47;1.37;;;0.40;;
18435;SDS011;9346;52.006;4.720;2022-10-24T04:42:14;1.67;;;0.50;;
18435;SDS011;9346;52.006;4.720;2022-10-24T04:44:42;2.07;;;0.40;;
18435;SDS011;9346;52.006;4.720;2022-10-24T04:47:10;5.57;;;1.23;;
18435;SDS011;9346;52.006;4.720;2022-10-24T04:49:37;3.97;;;0.83;;
18435;SDS011;9346;52.006;4.720;2022-10-24T04:52:04;4.10;;;1.00;;
18435;SDS011;9346;52.006;4.720;2022-10-24T04:54:31;5.60;;;1.00;;
18435;SDS011;9346;52.006;4.720;2022-10-24T04:56:59;4.03;;;0.83;;
18435;SDS011;9346;52.006;4.720;2022-10-24T04:59:26;2.43;;;0.73;;
18435;SDS011;9346;52.006;4.720;2022-10-24T05:01:53;3.17;;;0.83;;
18435;SDS011;9346;52.006;4.720;2022-10-24T05:04:24;2.17;;;0.53;;
18435;SDS011;9346;52.006;4.720;2022-10-24T05:06:51;2.90;;;0.90;;
18435;SDS011;9346;52.006;4.720;2022-10-24T05:09:18;4.30;;;1.00;;
18435;SDS011;9346;52.006;4.720;2022-10-24T05:11:45;4.43;;;0.50;;
18435;SDS011;9346;52.006;4.720;2022-10-24T05:14:12;1.40;;;0.50;;
18435;SDS011;9346;52.006;4.720;2022-10-24T05:16:40;3.07;;;0.57;;
18435;SDS011;9346;52.006;4.720;2022-10-24T05:19:07;1.17;;;0.63;;
18435;SDS011;9346;52.006;4.720;2022-10-24T05:21:36;0.90;;;0.47;;
18435;SDS011;9346;52.006;4.720;2022-10-24T05:24:03;1.13;;;0.60;;
18435;SDS011;9346;52.006;4.720;2022-10-24T05:26:31;1.73;;;0.53;;
18435;SDS011;9346;52.006;4.720;2022-10-24T05:28:58;3.57;;;0.80;;
18435;SDS011;9346;52.006;4.720;2022-10-24T05:31:25;1.60;;;0.83;;
18435;SDS011;9346;52.006;4.720;2022-10-24T05:33:52;2.77;;;0.97;;
18435;SDS011;9346;52.006;4.720;2022-10-24T05:36:19;3.07;;;0.50;;
18435;SDS011;9346;52.006;4.720;2022-10-24T05:38:48;7.67;;;1.00;;
18435;SDS011;9346;52.006;4.720;2022-10-24T05:41:15;2.03;;;0.73;;
18435;SDS011;9346;52.006;4.720;2022-10-24T05:43:41;4.53;;;1.13;;
18435;SDS011;9346;52.006;4.720;2022-10-24T05:46:08;2.27;;;0.67;;
18435;SDS011;9346;52.006;4.720;2022-10-24T05:48:36;3.93;;;0.90;;
18435;SDS011;9346;52.006;4.720;2022-10-24T05:51:03;3.03;;;0.57;;
18435;SDS011;9346;52.006;4.720;2022-10-24T05:53:30;2.07;;;0.70;;
18435;SDS011;9346;52.006;4.720;2022-10-24T05:55:58;1.30;;;0.43;;
18435;SDS011;9346;52.006;4.720;2022-10-24T05:58:25;3.50;;;0.80;;
18435;SDS011;9346;52.006;4.720;2022-10-24T06:00:52;2.40;;;0.50;;
18435;SDS011;9346;52.006;4.720;2022-10-24T06:03:20;4.40;;;0.57;;
18435;SDS011;9346;52.006;4.720;2022-10-24T06:05:47;2.80;;;0.63;;
18435;SDS011;9346;52.006;4.720;2022-10-24T06:08:14;1.30;;;0.70;;
18435;SDS011;9346;52.006;4.720;2022-10-24T06:10:44;2.47;;;0.83;;
18435;SDS011;9346;52.006;4.720;2022-10-24T06:13:14;4.27;;;0.80;;
18435;SDS011;9346;52.006;4.720;2022-10-24T06:15:41;4.80;;;0.83;;
18435;SDS011;9346;52.006;4.720;2022-10-24T06:18:09;3.33;;;0.40;;
18435;SDS011;9346;52.006;4.720;2022-10-24T06:20:36;3.03;;;0.50;;
18435;SDS011;9346;52.006;4.720;2022-10-24T06:23:04;3.73;;;1.30;;
18435;SDS011;9346;52.006;4.720;2022-10-24T06:25:31;3.73;;;0.60;;
18435;SDS011;9346;52.006;4.720;2022-10-24T06:27:58;1.83;;;0.50;;
18435;SDS011;9346;52.006;4.720;2022-10-24T06:30:26;0.67;;;0.30;;
18435;SDS011;9346;52.006;4.720;2022-10-24T06:32:53;3.00;;;0.93;;
18435;SDS011;9346;52.006;4.720;2022-10-24T06:35:21;5.23;;;1.47;;
18435;SDS011;9346;52.006;4.720;2022-10-24T06:37:48;3.87;;;0.80;;
18435;SDS011;9346;52.006;4.720;2022-10-24T06:40:16;1.40;;;1.30;;
18435;SDS011;9346;52.006;4.720;2022-10-24T06:42:43;2.23;;;1.13;;
18435;SDS011;9346;52.006;4.720;2022-10-24T06:45:11;1.43;;;0.90;;
18435;SDS011;9346;52.006;4.720;2022-10-24T06:47:40;2.53;;;0.80;;
18435;SDS011;9346;52.006;4.720;2022-10-24T06:50:12;1.40;;;0.67;;
18435;SDS011;9346;52.006;4.720;2022-10-24T06:52:39;2.97;;;0.50;;
18435;SDS011;9346;52.006;4.720;2022-10-24T06:55:06;1.90;;;0.70;;
18435;SDS011;9346;52.006;4.720;2022-10-24T06:57:34;2.87;;;0.87;;
18435;SDS011;9346;52.006;4.720;2022-10-24T07:00:02;0.93;;;0.63;;
18435;SDS011;9346;52.006;4.720;2022-10-24T07:02:31;3.03;;;0.80;;
18435;SDS011;9346;52.006;4.720;2022-10-24T07:05:00;0.63;;;0.60;;
18435;SDS011;9346;52.006;4.720;2022-10-24T07:07:27;0.93;;;0.50;;
18435;SDS011;9346;52.006;4.720;2022-10-24T07:09:55;2.07;;;0.60;;
18435;SDS011;9346;52.006;4.720;2022-10-24T07:12:23;7.63;;;1.07;;
18435;SDS011;9346;52.006;4.720;2022-10-24T07:14:51;3.00;;;0.57;;
18435;SDS011;9346;52.006;4.720;2022-10-24T07:17:18;4.20;;;0.80;;
18435;SDS011;9346;52.006;4.720;2022-10-24T07:19:50;7.13;;;1.03;;
18435;SDS011;9346;52.006;4.720;2022-10-24T07:22:19;3.10;;;0.70;;
18435;SDS011;9346;52.006;4.720;2022-10-24T07:24:50;1.77;;;0.60;;
18435;SDS011;9346;52.006;4.720;2022-10-24T07:27:19;2.37;;;1.00;;
18435;SDS011;9346;52.006;4.720;2022-10-24T07:29:46;5.47;;;0.93;;
18435;SDS011;9346;52.006;4.720;2022-10-24T07:32:15;2.37;;;0.73;;
18435;SDS011;9346;52.006;4.720;2022-10-24T07:34:43;2.10;;;1.13;;
18435;SDS011;9346;52.006;4.720;2022-10-24T07:37:11;3.60;;;1.23;;
18435;SDS011;9346;52.006;4.720;2022-10-24T07:39:41;4.23;;;0.70;;
18435;SDS011;9346;52.006;4.720;2022-10-24T07:42:10;5.63;;;0.90;;
18435;SDS011;9346;52.006;4.720;2022-10-24T07:44:38;3.47;;;1.07;;
18435;SDS011;9346;52.006;4.720;2022-10-24T07:47:05;3.23;;;0.80;;
18435;SDS011;9346;52.006;4.720;2022-10-24T07:49:34;2.97;;;1.00;;
18435;SDS011;9346;52.006;4.720;2022-10-24T07:52:01;2.23;;;0.80;;
18435;SDS011;9346;52.006;4.720;2022-10-24T07:54:31;0.70;;;0.50;;
18435;SDS011;9346;52.006;4.720;2022-10-24T07:57:00;2.63;;;0.73;;
18435;SDS011;9346;52.006;4.720;2022-10-24T07:59:28;2.37;;;0.60;;
18435;SDS011;9346;52.006;4.720;2022-10-24T08:01:55;1.97;;;0.70;;
18435;SDS011;9346;52.006;4.720;2022-10-24T08:04:23;2.93;;;0.80;;
18435;SDS011;9346;52.006;4.720;2022-10-24T08:06:50;3.43;;;1.10;;
18435;SDS011;9346;52.006;4.720;2022-10-24T08:09:17;2.30;;;0.90;;
18435;SDS011;9346;52.006;4.720;2022-10-24T08:11:45;2.20;;;1.10;;
18435;SDS011;9346;52.006;4.720;2022-10-24T08:14:14;4.13;;;1.53;;
18435;SDS011;9346;52.006;4.720;2022-10-24T08:16:41;5.60;;;1.03;;
18435;SDS011;9346;52.006;4.720;2022-10-24T08:19:09;2.57;;;1.20;;
18435;SDS011;9346;52.006;4.720;2022-10-24T08:21:39;1.83;;;0.60;;
18435;SDS011;9346;52.006;4.720;2022-10-24T08:24:06;4.03;;;0.70;;
18435;SDS011;9346;52.006;4.720;2022-10-24T08:26:33;2.37;;;0.80;;
18435;SDS011;9346;52.006;4.720;2022-10-24T08:29:04;1.30;;;0.70;;
18435;SDS011;9346;52.006;4.720;2022-10-24T08:31:37;3.20;;;0.80;;
18435;SDS011;9346;52.006;4.720;2022-10-24T08:34:04;1.07;;;0.70;;
18435;SDS011;9346;52.006;4.720;2022-10-24T08:36:32;2.67;;;0.77;;
18435;SDS011;9346;52.006;4.720;2022-10-24T08:39:00;0.77;;;0.50;;
18435;SDS011;9346;52.006;4.720;2022-10-24T08:41:29;2.67;;;0.57;;
18435;SDS011;9346;52.006;4.720;2022-10-24T08:43:59;1.23;;;0.73;;
18435;SDS011;9346;52.006;4.720;2022-10-24T08:49:32;4.13;;;1.37;;
18435;SDS011;9346;52.006;4.720;2022-10-24T08:52:06;3.03;;;1.10;;
18435;SDS011;9346;52.006;4.720;2022-10-24T08:54:41;3.40;;;1.10;;
18435;SDS011;9346;52.006;4.720;2022-10-24T08:57:15;2.00;;;0.60;;
18435;SDS011;9346;52.006;4.720;2022-10-24T08:59:46;4.37;;;1.13;;
18435;SDS011;9346;52.006;4.720;2022-10-24T09:02:16;3.13;;;1.20;;
18435;SDS011;9346;52.006;4.720;2022-10-24T09:04:50;0.97;;;0.50;;
18435;SDS011;9346;52.006;4.720;2022-10-24T09:07:21;2.93;;;1.27;;
18435;SDS011;9346;52.006;4.720;2022-10-24T09:09:51;4.43;;;1.57;;
18435;SDS011;9346;52.006;4.720;2022-10-24T09:12:24;3.80;;;0.90;;
18435;SDS011;9346;52.006;4.720;2022-10-24T09:14:54;5.53;;;1.20;;
18435;SDS011;9346;52.006;4.720;2022-10-24T09:17:28;3.20;;;0.83;;
18435;SDS011;9346;52.006;4.720;2022-10-24T09:19:59;4.73;;;0.73;;
18435;SDS011;9346;52.006;4.720;2022-10-24T09:22:31;1.50;;;0.90;;
18435;SDS011;9346;52.006;4.720;2022-10-24T09:25:00;3.10;;;0.80;;
18435;SDS011;9346;52.006;4.720;2022-10-24T09:27:29;4.13;;;1.40;;
18435;SDS011;9346;52.006;4.720;2022-10-24T09:29:59;4.00;;;0.97;;
18435;SDS011;9346;52.006;4.720;2022-10-24T09:32:29;4.33;;;1.00;;
18435;SDS011;9346;52.006;4.720;2022-10-24T09:34:58;4.07;;;1.13;;
18435;SDS011;9346;52.006;4.720;2022-10-24T09:37:30;2.27;;;0.70;;
18435;SDS011;9346;52.006;4.720;2022-10-24T09:40:06;5.50;;;1.33;;
18435;SDS011;9346;52.006;4.720;2022-10-24T09:42:38;4.43;;;1.00;;
18435;SDS011;9346;52.006;4.720;2022-10-24T09:45:17;2.77;;;1.13;;
18435;SDS011;9346;52.006;4.720;2022-10-24T09:47:55;4.77;;;0.90;;
18435;SDS011;9346;52.006;4.720;2022-10-24T09:50:23;3.93;;;0.80;;
18435;SDS011;9346;52.006;4.720;2022-10-24T09:52:52;1.53;;;0.83;;
18435;SDS011;9346;52.006;4.720;2022-10-24T09:55:24;1.70;;;0.73;;
18435;SDS011;9346;52.006;4.720;2022-10-24T09:57:54;2.97;;;1.03;;
18435;SDS011;9346;52.006;4.720;2022-10-24T10:00:25;1.37;;;0.80;;
18435;SDS011;9346;52.006;4.720;2022-10-24T10:03:00;3.30;;;1.33;;
18435;SDS011;9346;52.006;4.720;2022-10-24T10:05:41;2.17;;;0.77;;
18435;SDS011;9346;52.006;4.720;2022-10-24T10:08:11;0.70;;;0.57;;
18435;SDS011;9346;52.006;4.720;2022-10-24T10:10:53;1.20;;;0.67;;
18435;SDS011;9346;52.006;4.720;2022-10-24T10:13:25;1.57;;;0.70;;
18435;SDS011;9346;52.006;4.720;2022-10-24T10:15:54;3.77;;;1.03;;
18435;SDS011;9346;52.006;4.720;2022-10-24T10:18:34;3.13;;;1.00;;
18435;SDS011;9346;52.006;4.720;2022-10-24T10:21:13;1.73;;;0.60;;
18435;SDS011;9346;52.006;4.720;2022-10-24T10:23:43;1.07;;;0.50;;
18435;SDS011;9346;52.006;4.720;2022-10-24T10:26:18;2.27;;;0.77;;
18435;SDS011;9346;52.006;4.720;2022-10-24T10:28:50;5.80;;;1.13;;
18435;SDS011;9346;52.006;4.720;2022-10-24T10:31:22;1.70;;;0.83;;
18435;SDS011;9346;52.006;4.720;2022-10-24T10:33:58;1.73;;;1.10;;
18435;SDS011;9346;52.006;4.720;2022-10-24T10:36:39;0.87;;;0.80;;
18435;SDS011;9346;52.006;4.720;2022-10-24T10:42:32;1.93;;;0.60;;
18435;SDS011;9346;52.006;4.720;2022-10-24T10:47:55;2.57;;;1.30;;
18435;SDS011;9346;52.006;4.720;2022-10-24T10:50:37;4.90;;;1.20;;
18435;SDS011;9346;52.006;4.720;2022-10-24T10:53:10;4.10;;;0.90;;
18435;SDS011;9346;52.006;4.720;2022-10-24T10:55:51;2.50;;;1.00;;
18435;SDS011;9346;52.006;4.720;2022-10-24T10:58:29;1.93;;;0.80;;
18435;SDS011;9346;52.006;4.720;2022-10-24T11:01:07;1.30;;;0.70;;
18435;SDS011;9346;52.006;4.720;2022-10-24T11:03:43;2.83;;;0.87;;
18435;SDS011;9346;52.006;4.720;2022-10-24T11:06:20;0.43;;;0.27;;
18435;SDS011;9346;52.006;4.720;2022-10-24T11:09:07;3.73;;;0.70;;
18435;SDS011;9346;52.006;4.720;2022-10-24T11:11:58;1.93;;;0.60;;
18435;SDS011;9346;52.006;4.720;2022-10-24T11:14:32;1.43;;;0.90;;
18435;SDS011;9346;52.006;4.720;2022-10-24T11:17:05;4.57;;;1.00;;
18435;SDS011;9346;52.006;4.720;2022-10-24T11:19:49;1.37;;;0.90;;
18435;SDS011;9346;52.006;4.720;2022-10-24T11:22:28;8.17;;;1.27;;
18435;SDS011;9346;52.006;4.720;2022-10-24T11:25:05;2.00;;;0.90;;
18435;SDS011;9346;52.006;4.720;2022-10-24T11:27:43;2.17;;;1.10;;
18435;SDS011;9346;52.006;4.720;2022-10-24T11:30:18;3.30;;;0.97;;
18435;SDS011;9346;52.006;4.720;2022-10-24T11:32:48;1.90;;;1.50;;
18435;SDS011;9346;52.006;4.720;2022-10-24T11:35:24;2.60;;;1.10;;
18435;SDS011;9346;52.006;4.720;2022-10-24T11:37:57;1.07;;;1.00;;
18435;SDS011;9346;52.006;4.720;2022-10-24T11:40:28;1.90;;;0.90;;
18435;SDS011;9346;52.006;4.720;2022-10-24T11:42:57;4.40;;;0.90;;
18435;SDS011;9346;52.006;4.720;2022-10-24T11:45:32;2.07;;;0.90;;
18435;SDS011;9346;52.006;4.720;2022-10-24T11:48:08;1.43;;;0.93;;
18435;SDS011;9346;52.006;4.720;2022-10-24T11:50:43;3.03;;;1.13;;
18435;SDS011;9346;52.006;4.720;2022-10-24T11:53:19;2.23;;;1.10;;
18435;SDS011;9346;52.006;4.720;2022-10-24T11:56:08;4.17;;;1.53;;
18435;SDS011;9346;52.006;4.720;2022-10-24T11:58:45;3.33;;;1.00;;
18435;SDS011;9346;52.006;4.720;2022-10-24T12:01:21;2.83;;;1.37;;
18435;SDS011;9346;52.006;4.720;2022-10-24T12:04:16;1.43;;;1.20;;
18435;SDS011;9346;52.006;4.720;2022-10-24T12:07:01;2.30;;;1.50;;
18435;SDS011;9346;52.006;4.720;2022-10-24T12:10:05;2.37;;;1.50;;
18435;SDS011;9346;52.006;4.720;2022-10-24T12:12:55;4.00;;;1.53;;
18435;SDS011;9346;52.006;4.720;2022-10-24T12:15:41;3.43;;;1.43;;
18435;SDS011;9346;52.006;4.720;2022-10-24T12:18:22;4.63;;;1.30;;
18435;SDS011;9346;52.006;4.720;2022-10-24T12:20:55;1.30;;;1.03;;
18435;SDS011;9346;52.006;4.720;2022-10-24T12:23:27;3.77;;;1.40;;
18435;SDS011;9346;52.006;4.720;2022-10-24T12:26:04;7.20;;;1.17;;
18435;SDS011;9346;52.006;4.720;2022-10-24T12:28:33;4.93;;;1.00;;
18435;SDS011;9346;52.006;4.720;2022-10-24T12:31:09;2.67;;;1.03;;
18435;SDS011;9346;52.006;4.720;2022-10-24T12:33:44;3.53;;;0.93;;
18435;SDS011;9346;52.006;4.720;2022-10-24T12:36:12;4.87;;;1.17;;
18435;SDS011;9346;52.006;4.720;2022-10-24T12:41:37;1.77;;;0.93;;
18435;SDS011;9346;52.006;4.720;2022-10-24T12:44:35;1.00;;;0.90;;
18435;SDS011;9346;52.006;4.720;2022-10-24T12:47:28;2.77;;;0.97;;
18435;SDS011;9346;52.006;4.720;2022-10-24T12:49:57;1.83;;;1.07;;
18435;SDS011;9346;52.006;4.720;2022-10-24T12:52:49;2.70;;;0.90;;
18435;SDS011;9346;52.006;4.720;2022-10-24T12:55:29;2.63;;;0.80;;
18435;SDS011;9346;52.006;4.720;2022-10-24T12:58:23;1.40;;;1.07;;
18435;SDS011;9346;52.006;4.720;2022-10-24T13:01:09;2.93;;;0.90;;
18435;SDS011;9346;52.006;4.720;2022-10-24T13:10:15;2.00;;;1.33;;
18435;SDS011;9346;52.006;4.720;2022-10-24T13:12:58;3.50;;;1.20;;
18435;SDS011;9346;52.006;4.720;2022-10-24T13:15:47;4.77;;;1.67;;
18435;SDS011;9346;52.006;4.720;2022-10-24T13:18:23;1.40;;;1.20;;
18435;SDS011;9346;52.006;4.720;2022-10-24T13:23:52;8.13;;;1.30;;
18435;SDS011;9346;52.006;4.720;2022-10-24T13:26:37;2.23;;;1.03;;
18435;SDS011;9346;52.006;4.720;2022-10-24T13:29:10;3.97;;;1.20;;
18435;SDS011;9346;52.006;4.720;2022-10-24T13:31:50;1.27;;;1.03;;
18435;SDS011;9346;52.006;4.720;2022-10-24T13:34:29;3.27;;;1.33;;
18435;SDS011;9346;52.006;4.720;2022-10-24T13:36:59;3.80;;;1.00;;
18435;SDS011;9346;52.006;4.720;2022-10-24T13:39:34;4.73;;;1.00;;
18435;SDS011;9346;52.006;4.720;2022-10-24T13:42:04;2.10;;;0.83;;
18435;SDS011;9346;52.006;4.720;2022-10-24T13:44:38;4.70;;;1.47;;
18435;SDS011;9346;52.006;4.720;2022-10-24T13:47:19;6.00;;;0.90;;
18435;SDS011;9346;52.006;4.720;2022-10-24T13:49:50;4.03;;;1.10;;
18435;SDS011;9346;52.006;4.720;2022-10-24T13:52:23;3.47;;;1.37;;
18435;SDS011;9346;52.006;4.720;2022-10-24T13:54:57;5.97;;;1.83;;
18435;SDS011;9346;52.006;4.720;2022-10-24T13:57:29;2.93;;;0.73;;
18435;SDS011;9346;52.006;4.720;2022-10-24T13:59:58;5.73;;;1.37;;
18435;SDS011;9346;52.006;4.720;2022-10-24T14:02:31;4.33;;;1.20;;
18435;SDS011;9346;52.006;4.720;2022-10-24T14:05:04;5.87;;;1.03;;
18435;SDS011;9346;52.006;4.720;2022-10-24T14:07:32;5.33;;;1.70;;
18435;SDS011;9346;52.006;4.720;2022-10-24T14:10:00;3.17;;;1.23;;
18435;SDS011;9346;52.006;4.720;2022-10-24T14:12:34;5.77;;;0.90;;
18435;SDS011;9346;52.006;4.720;2022-10-24T14:15:05;1.53;;;0.87;;
18435;SDS011;9346;52.006;4.720;2022-10-24T14:17:53;4.97;;;1.37;;
18435;SDS011;9346;52.006;4.720;2022-10-24T14:20:23;3.90;;;1.70;;
18435;SDS011;9346;52.006;4.720;2022-10-24T14:22:53;6.40;;;1.30;;
18435;SDS011;9346;52.006;4.720;2022-10-24T14:25:22;3.10;;;0.83;;
18435;SDS011;9346;52.006;4.720;2022-10-24T14:27:53;2.63;;;0.83;;
18435;SDS011;9346;52.006;4.720;2022-10-24T14:30:22;4.10;;;0.93;;
18435;SDS011;9346;52.006;4.720;2022-10-24T14:35:49;6.70;;;1.63;;
18435;SDS011;9346;52.006;4.720;2022-10-24T14:38:18;3.23;;;0.90;;
18435;SDS011;9346;52.006;4.720;2022-10-24T14:40:47;3.40;;;1.03;;
18435;SDS011;9346;52.006;4.720;2022-10-24T14:43:16;3.23;;;0.87;;
18435;SDS011;9346;52.006;4.720;2022-10-24T14:46:02;5.13;;;1.60;;
18435;SDS011;9346;52.006;4.720;2022-10-24T14:48:35;2.93;;;0.97;;
18435;SDS011;9346;52.006;4.720;2022-10-24T14:51:08;4.07;;;0.73;;
18435;SDS011;9346;52.006;4.720;2022-10-24T14:53:41;3.30;;;1.30;;
18435;SDS011;9346;52.006;4.720;2022-10-24T14:56:15;2.87;;;1.10;;
18435;SDS011;9346;52.006;4.720;2022-10-24T14:58:50;3.17;;;0.97;;
18435;SDS011;9346;52.006;4.720;2022-10-24T15:01:19;4.63;;;0.97;;
18435;SDS011;9346;52.006;4.720;2022-10-24T15:03:53;6.33;;;1.60;;
18435;SDS011;9346;52.006;4.720;2022-10-24T15:06:25;4.27;;;0.83;;
18435;SDS011;9346;52.006;4.720;2022-10-24T15:09:00;3.53;;;1.00;;
18435;SDS011;9346;52.006;4.720;2022-10-24T15:11:29;5.80;;;0.90;;
18435;SDS011;9346;52.006;4.720;2022-10-24T15:14:03;2.73;;;0.70;;
18435;SDS011;9346;52.006;4.720;2022-10-24T15:16:31;3.27;;;1.10;;
18435;SDS011;9346;52.006;4.720;2022-10-24T15:19:04;2.73;;;1.03;;
18435;SDS011;9346;52.006;4.720;2022-10-24T15:21:39;3.80;;;1.17;;
18435;SDS011;9346;52.006;4.720;2022-10-24T15:24:15;2.37;;;0.80;;
18435;SDS011;9346;52.006;4.720;2022-10-24T15:26:46;2.93;;;0.90;;
18435;SDS011;9346;52.006;4.720;2022-10-24T15:29:16;10.97;;;1.20;;
18435;SDS011;9346;52.006;4.720;2022-10-24T15:31:46;5.27;;;1.50;;
18435;SDS011;9346;52.006;4.720;2022-10-24T15:34:18;7.37;;;1.00;;
18435;SDS011;9346;52.006;4.720;2022-10-24T15:36:47;6.17;;;1.07;;
18435;SDS011;9346;52.006;4.720;2022-10-24T15:39:17;3.50;;;0.83;;
18435;SDS011;9346;52.006;4.720;2022-10-24T15:41:46;7.40;;;1.07;;
18435;SDS011;9346;52.006;4.720;2022-10-24T15:44:16;7.73;;;1.57;;
18435;SDS011;9346;52.006;4.720;2022-10-24T15:46:45;3.03;;;0.70;;
18435;SDS011;9346;52.006;4.720;2022-10-24T15:49:14;4.73;;;1.07;;
18435;SDS011;9346;52.006;4.720;2022-10-24T15:51:44;5.57;;;1.13;;